Mineral, Kansas
Current Conditions -  °F | °C
As of 12:55 PM on Saturday 25 Oct 2014 (Local Time) from KPTS Reporting Station
Clear Clear  
Wind Chill: 78°   Ceiling: Unl
Heat Index: 80°   Visibility: 10mi
Dew Point: 66°   Wind: 3mph
Humidity: 66%   Direction: 230°SW
Pressure: 30.05"   Gusts: NA
Location:  37.2845°N, 94.9255°W
Report Text: KPTS 251755Z AUTO 23003KT 10SM CLR 26/19 A3005 RMK AO2 T02570190
Loading
Personal Weather Stations






























Interactive Weather Map
Tropical Storm Tracking
New forecast layout! Learn more

10-Day Weather Forecast

Advertisements
Track Severe Weather on mobile